Time;durP1;ratioP1;P1;durP2;ratioP2;P2;SDS_P1;SDS_P2;PMS_P1;PMS_P2;Temp;Humidity;BMP_temperature;BMP_pressure;BME280_temperature;BME280_humidity;BME280_pressure;Samples;Min_cycle;Max_cycle;Signal;HPM_P1;HPM_P2
2021/12/31 00:02:26;;;;;;;2.95;0.88;;;;;;;11.99;89.63;96450.22;4823970;29;20072;-40
2021/12/31 00:04:55;;;;;;;1.55;0.90;;;;;;;11.67;91.18;96452.41;4824263;29;20058;-42
2021/12/31 00:07:22;;;;;;;2.00;0.90;;;;;;;11.81;91.02;96443.25;4830439;29;20076;-43
2021/12/31 00:09:49;;;;;;;1.83;0.90;;;;;;;12.08;89.49;96442.78;4833886;29;20057;-44
2021/12/31 00:12:16;;;;;;;2.28;1.17;;;;;;;12.02;90.00;96437.88;4832924;29;20057;-43
2021/12/31 00:14:43;;;;;;;1.30;0.80;;;;;;;11.58;92.19;96435.38;4829242;29;20054;-44
2021/12/31 00:17:10;;;;;;;1.95;1.00;;;;;;;12.01;90.75;96439.81;4836032;29;20483;-45
2021/12/31 00:19:43;;;;;;;1.55;1.00;;;;;;;11.95;90.51;96437.63;4832743;29;20051;-43
2021/12/31 00:24:58;;;;;;;1.80;0.88;;;;;;;12.16;88.99;96441.16;4813534;29;20137;-43
2021/12/31 00:27:26;;;;;;;1.70;1.00;;;;;;;11.93;90.07;96440.66;4833657;29;20444;-42
2021/12/31 00:29:53;;;;;;;1.45;1.08;;;;;;;12.19;88.94;96459.50;4793570;29;20050;-43
2021/12/31 00:32:20;;;;;;;1.00;0.82;;;;;;;11.90;90.03;96452.97;4831688;29;20062;-49
2021/12/31 00:34:47;;;;;;;1.60;0.88;;;;;;;11.90;90.06;96441.31;4834805;29;20557;-46
2021/12/31 00:37:28;;;;;;;1.35;0.80;;;;;;;11.79;90.97;96446.28;4832666;29;20397;-43
2021/12/31 00:39:55;;;;;;;1.33;0.80;;;;;;;11.92;90.22;96455.34;4833741;29;20053;-44
2021/12/31 00:42:22;;;;;;;1.38;0.88;;;;;;;11.84;90.74;96456.97;4830963;29;21264;-44
2021/12/31 00:44:50;;;;;;;2.13;0.93;;;;;;;12.04;89.52;96452.72;4836265;29;20046;-43
2021/12/31 00:47:17;;;;;;;1.35;0.80;;;;;;;12.05;89.57;96458.94;4829361;29;20081;-44
2021/12/31 00:49:45;;;;;;;1.65;0.70;;;;;;;11.95;89.81;96446.53;4839037;29;20416;-41
2021/12/31 00:52:14;;;;;;;2.20;0.80;;;;;;;11.82;90.17;96444.84;4834466;29;20057;-42
2021/12/31 00:54:43;;;;;;;1.00;0.70;;;;;;;11.81;90.65;96449.47;4833430;29;20053;-43
2021/12/31 00:57:11;;;;;;;1.40;0.90;;;;;;;12.09;88.91;96455.25;4832341;29;20057;-43
2021/12/31 00:59:40;;;;;;;1.02;0.70;;;;;;;12.10;88.94;96450.59;4834800;29;20053;-43
2021/12/31 01:02:07;;;;;;;1.63;0.82;;;;;;;11.81;90.46;96445.97;4818526;29;20509;-44
2021/12/31 01:04:34;;;;;;;1.45;0.90;;;;;;;11.81;90.72;96446.75;4829615;29;20050;-45
2021/12/31 01:07:02;;;;;;;1.67;0.82;;;;;;;11.85;89.75;96445.00;4829690;29;20721;-42
2021/12/31 01:09:29;;;;;;;1.10;0.80;;;;;;;11.88;89.85;96451.69;4834035;29;20065;-43
2021/12/31 01:11:57;;;;;;;1.23;0.77;;;;;;;12.30;88.08;96455.25;4831063;29;20497;-45
2021/12/31 01:14:35;;;;;;;2.22;1.13;;;;;;;12.07;88.54;96451.28;4838358;29;20050;-44
2021/12/31 01:17:07;;;;;;;1.75;0.88;;;;;;;11.90;89.69;96457.59;4835871;29;20496;-44
2021/12/31 01:19:45;;;;;;;0.88;0.65;;;;;;;12.03;88.92;96472.81;4832058;29;20081;-43
2021/12/31 01:22:18;;;;;;;0.80;0.70;;;;;;;11.87;89.62;96461.75;4836446;29;20492;-45
2021/12/31 01:24:45;;;;;;;1.23;0.50;;;;;;;11.77;90.01;96464.81;4831720;29;20580;-44
2021/12/31 01:27:13;;;;;;;1.42;0.68;;;;;;;11.71;90.53;96466.09;4831825;29;20129;-44
2021/12/31 01:29:41;;;;;;;1.02;0.52;;;;;;;11.62;90.95;96454.50;4831202;29;21810;-46
2021/12/31 01:32:09;;;;;;;0.70;0.65;;;;;;;11.63;90.77;96456.91;4831425;29;20050;-45
2021/12/31 01:34:37;;;;;;;1.02;0.82;;;;;;;11.62;90.78;96462.63;4834286;29;20056;-45
2021/12/31 01:37:05;;;;;;;2.17;0.88;;;;;;;11.62;91.05;96465.34;4831543;29;20153;-43
2021/12/31 01:39:32;;;;;;;0.60;0.60;;;;;;;11.62;90.99;96462.63;4828923;29;20074;-43
2021/12/31 01:42:02;;;;;;;0.60;0.60;;;;;;;11.69;90.47;96468.34;4834421;29;20058;-44
2021/12/31 01:44:56;;;;;;;0.80;0.57;;;;;;;11.58;90.72;96478.75;4813514;29;20074;-44
2021/12/31 01:47:22;;;;;;;1.33;0.70;;;;;;;12.03;88.45;96472.03;4834395;29;20420;-43
2021/12/31 01:49:58;;;;;;;0.90;0.52;;;;;;;11.73;89.86;96469.25;4834327;29;20058;-43
2021/12/31 01:52:25;;;;;;;1.25;0.80;;;;;;;11.67;90.03;96462.47;4832712;29;20055;-43
2021/12/31 01:54:53;;;;;;;0.77;0.70;;;;;;;11.67;90.30;96465.19;4832222;29;20125;-44
2021/12/31 01:57:20;;;;;;;0.75;0.60;;;;;;;11.63;90.57;96469.63;4832579;29;20057;-43
2021/12/31 01:59:47;;;;;;;1.08;0.75;;;;;;;11.58;90.19;96467.91;4829781;29;20045;-46
2021/12/31 02:02:15;;;;;;;1.50;0.90;;;;;;;11.70;89.68;96461.81;4827163;29;20501;-44
2021/12/31 02:04:42;;;;;;;2.13;1.10;;;;;;;11.77;89.86;96461.31;4833367;29;20049;-45
2021/12/31 02:07:09;;;;;;;2.45;1.13;;;;;;;11.87;89.39;96464.47;4835926;29;20066;-44
2021/12/31 02:09:48;;;;;;;1.17;0.90;;;;;;;11.80;88.57;96460.66;4829989;29;20057;-44
2021/12/31 02:12:17;;;;;;;1.92;0.90;;;;;;;11.55;90.57;96463.13;4838280;29;20106;-48
2021/12/31 02:14:44;;;;;;;1.25;0.80;;;;;;;11.53;90.55;96468.06;4837335;29;20061;-46
2021/12/31 02:17:11;;;;;;;0.85;0.63;;;;;;;11.79;89.50;96467.97;4835799;29;20386;-42
2021/12/31 02:19:39;;;;;;;2.33;0.70;;;;;;;11.77;89.06;96470.22;4835711;29;20547;-45
2021/12/31 02:22:07;;;;;;;1.58;0.90;;;;;;;11.69;89.54;96474.53;4837514;29;20050;-42
2021/12/31 02:24:36;;;;;;;0.95;0.70;;;;;;;11.84;89.11;96475.13;4842130;29;20049;-45
2021/12/31 02:27:03;;;;;;;1.60;0.65;;;;;;;11.77;88.92;96478.34;4831208;29;20042;-43
2021/12/31 02:29:30;;;;;;;1.10;0.60;;;;;;;11.84;88.86;96475.97;4834588;29;20153;-46
2021/12/31 02:31:59;;;;;;;0.82;0.65;;;;;;;11.81;88.83;96476.56;4835307;29;20078;-44
2021/12/31 02:34:26;;;;;;;1.15;0.80;;;;;;;11.50;90.28;96479.56;4838901;29;20115;-45
2021/12/31 02:36:54;;;;;;;1.08;0.60;;;;;;;11.66;89.32;96472.50;4835791;29;20049;-49
2021/12/31 02:39:21;;;;;;;1.13;0.80;;;;;;;11.90;88.77;96474.66;4834838;29;20062;-46
2021/12/31 02:41:48;;;;;;;0.90;0.60;;;;;;;12.04;87.34;96477.13;4836248;29;20050;-46
2021/12/31 02:44:15;;;;;;;0.82;0.60;;;;;;;11.75;89.03;96471.66;4831271;29;20050;-43
2021/12/31 02:46:42;;;;;;;1.52;0.80;;;;;;;11.59;89.74;96472.19;4836571;29;21186;-44
2021/12/31 02:49:09;;;;;;;0.60;0.60;;;;;;;11.56;90.18;96469.34;4835346;29;20157;-43
2021/12/31 02:51:36;;;;;;;1.90;0.70;;;;;;;11.63;89.65;96464.22;4832884;29;21058;-46
2021/12/31 02:54:08;;;;;;;0.93;0.70;;;;;;;11.75;89.11;96463.53;4838111;29;20052;-45
2021/12/31 02:56:35;;;;;;;0.80;0.60;;;;;;;11.72;88.86;96461.47;4831343;29;20125;-46
2021/12/31 02:59:02;;;;;;;1.20;0.73;;;;;;;11.58;89.55;96457.06;4837130;29;20076;-43
2021/12/31 03:01:29;;;;;;;1.08;0.70;;;;;;;11.53;89.86;96454.53;4830511;29;20064;-42
2021/12/31 03:03:58;;;;;;;1.45;0.90;;;;;;;11.52;90.10;96452.16;4821704;29;20103;-44
2021/12/31 03:06:26;;;;;;;0.85;0.60;;;;;;;11.49;90.25;96452.81;4832771;29;20038;-47
2021/12/31 03:08:54;;;;;;;1.95;0.70;;;;;;;11.46;90.18;96452.31;4831922;29;20053;-44
2021/12/31 03:11:21;;;;;;;0.52;0.50;;;;;;;11.43;90.65;96452.19;4838159;29;20077;-43
2021/12/31 03:13:54;;;;;;;1.58;0.63;;;;;;;11.41;90.36;96449.81;4833843;29;20081;-45
2021/12/31 03:16:22;;;;;;;0.70;0.65;;;;;;;11.48;90.02;96448.53;4839356;29;20137;-48
2021/12/31 03:18:50;;;;;;;1.50;0.60;;;;;;;11.42;90.48;96448.69;4835219;29;20062;-48
2021/12/31 03:21:21;;;;;;;1.45;0.70;;;;;;;11.40;90.36;96442.78;4829125;29;20090;-44
2021/12/31 03:23:52;;;;;;;1.77;0.70;;;;;;;11.66;89.49;96448.09;4840248;29;20085;-44
2021/12/31 03:26:20;;;;;;;1.48;0.52;;;;;;;11.47;89.34;96445.00;4837265;29;20050;-46
2021/12/31 03:28:48;;;;;;;0.95;0.70;;;;;;;11.41;90.05;96447.09;4820453;29;20094;-49
2021/12/31 03:31:15;;;;;;;1.30;0.82;;;;;;;11.33;90.43;96450.63;4836180;29;20117;-45
2021/12/31 03:33:42;;;;;;;0.88;0.80;;;;;;;11.27;90.67;96435.66;4833642;29;20042;-44
2021/12/31 03:36:09;;;;;;;1.20;0.80;;;;;;;11.36;90.20;96444.56;4833373;29;20050;-47
2021/12/31 03:38:36;;;;;;;1.75;0.70;;;;;;;11.36;90.25;96438.34;4833377;29;20122;-45
2021/12/31 03:41:03;;;;;;;1.08;0.68;;;;;;;11.36;90.23;96431.00;4830066;29;20054;-45
2021/12/31 03:43:30;;;;;;;1.55;0.80;;;;;;;11.33;90.34;96423.53;4835212;29;20494;-44
2021/12/31 03:45:57;;;;;;;0.90;0.80;;;;;;;11.71;88.71;96425.44;4837414;29;20046;-42
2021/12/31 03:48:24;;;;;;;1.10;0.75;;;;;;;11.64;89.19;96422.47;4838318;29;20470;-42
2021/12/31 03:50:51;;;;;;;1.38;0.80;;;;;;;11.83;88.09;96424.72;4837250;29;20049;-43
2021/12/31 03:53:19;;;;;;;1.75;0.90;;;;;;;11.75;88.37;96423.66;4838728;29;20054;-44
2021/12/31 03:55:47;;;;;;;1.10;0.80;;;;;;;11.49;89.76;96426.50;4832575;29;20043;-44
2021/12/31 03:58:14;;;;;;;1.52;0.88;;;;;;;11.35;90.75;96429.44;4839440;29;20066;-46
2021/12/31 04:00:41;;;;;;;1.50;0.80;;;;;;;11.32;90.96;96424.66;4835339;29;20069;-43
2021/12/31 04:03:11;;;;;;;1.42;0.90;;;;;;;11.28;91.14;96421.03;4831155;29;20050;-46
2021/12/31 04:05:40;;;;;;;1.67;1.00;;;;;;;11.24;91.26;96420.06;4838727;29;20052;-43
2021/12/31 04:08:09;;;;;;;1.02;0.90;;;;;;;11.28;91.19;96412.06;4830791;29;20061;-47
2021/12/31 04:10:36;;;;;;;2.13;1.00;;;;;;;11.25;91.37;96418.97;4836532;29;20406;-41
2021/12/31 04:13:03;;;;;;;1.88;1.00;;;;;;;11.21;91.34;96412.56;4838027;29;20053;-40
2021/12/31 04:15:31;;;;;;;1.02;0.80;;;;;;;11.16;91.76;96413.56;4836308;29;20055;-41
2021/12/31 04:17:58;;;;;;;2.75;1.02;;;;;;;11.16;91.79;96412.78;4831644;29;20046;-46
2021/12/31 04:20:43;;;;;;;2.22;1.25;;;;;;;11.17;91.65;96422.47;4836544;29;20046;-48
2021/12/31 04:23:25;;;;;;;1.13;0.93;;;;;;;11.13;91.83;96403.38;4819032;29;20069;-42
2021/12/31 04:25:52;;;;;;;1.35;1.00;;;;;;;11.14;91.59;96402.25;4835626;29;20133;-45
2021/12/31 04:28:19;;;;;;;1.70;1.13;;;;;;;11.11;91.88;96404.81;4830130;29;20050;-44
2021/12/31 04:30:46;;;;;;;2.00;1.00;;;;;;;11.15;91.56;96395.72;4834278;29;20042;-44
2021/12/31 04:33:13;;;;;;;1.30;0.93;;;;;;;11.10;91.83;96405.94;4835857;29;20050;-44
2021/12/31 04:35:40;;;;;;;1.15;1.00;;;;;;;11.14;91.26;96399.53;4828880;29;20146;-44
2021/12/31 04:38:07;;;;;;;1.52;0.98;;;;;;;11.08;91.55;96402.75;4833034;29;20408;-44
2021/12/31 04:40:34;;;;;;;1.30;0.95;;;;;;;11.11;91.86;96392.06;4834510;29;20065;-45
2021/12/31 04:43:01;;;;;;;1.25;0.98;;;;;;;11.13;91.67;96394.47;4831612;29;20050;-44
2021/12/31 04:45:28;;;;;;;1.45;0.90;;;;;;;11.09;91.55;96396.22;4835633;29;20037;-48
2021/12/31 04:47:55;;;;;;;2.10;1.10;;;;;;;11.14;91.46;96393.34;4838859;29;20061;-44
2021/12/31 04:50:22;;;;;;;1.45;0.90;;;;;;;11.12;91.58;96395.59;4832551;29;20046;-44
2021/12/31 04:52:49;;;;;;;1.52;1.10;;;;;;;11.16;91.48;96402.72;4834625;29;20058;-43
2021/12/31 04:55:16;;;;;;;1.92;1.10;;;;;;;11.12;91.45;96396.38;4830039;29;20093;-44
2021/12/31 04:57:47;;;;;;;2.28;1.25;;;;;;;11.19;91.21;96399.38;4834695;29;20050;-44
2021/12/31 05:00:15;;;;;;;1.63;1.10;;;;;;;11.21;90.86;96394.44;4834120;29;20519;-44
2021/12/31 05:02:42;;;;;;;1.85;1.20;;;;;;;11.19;90.97;96395.88;4833084;29;20394;-44
2021/12/31 05:05:11;;;;;;;2.30;1.40;;;;;;;11.26;90.35;96398.88;4831521;29;20117;-44
2021/12/31 05:07:38;;;;;;;1.88;1.10;;;;;;;11.24;90.42;96395.69;4832945;29;20436;-45
2021/12/31 05:10:06;;;;;;;1.83;1.00;;;;;;;11.18;90.76;96400.50;4836333;29;20413;-44
2021/12/31 05:12:36;;;;;;;1.92;0.90;;;;;;;11.12;90.91;96401.00;4834917;29;20118;-43
2021/12/31 05:15:08;;;;;;;2.22;1.13;;;;;;;11.10;91.07;96392.41;4831392;29;20061;-44
2021/12/31 05:17:36;;;;;;;1.50;0.90;;;;;;;11.14;91.21;96398.75;4829721;29;20053;-45
2021/12/31 05:20:03;;;;;;;1.98;1.30;;;;;;;11.14;90.86;96394.13;4834783;29;20668;-44
2021/12/31 05:22:30;;;;;;;1.58;1.10;;;;;;;11.07;91.13;96395.75;4832552;29;20056;-43
2021/12/31 05:24:57;;;;;;;1.80;1.17;;;;;;;11.08;90.86;96400.03;4832225;29;20052;-44
2021/12/31 05:27:24;;;;;;;2.17;1.15;;;;;;;11.05;90.92;96392.56;4832532;29;20065;-44
2021/12/31 05:29:51;;;;;;;1.67;1.00;;;;;;;11.05;91.22;96398.81;4830171;29;20053;-44
2021/12/31 05:32:18;;;;;;;1.70;1.30;;;;;;;10.98;90.90;96393.88;4831451;29;20047;-44
2021/12/31 05:34:45;;;;;;;2.83;1.63;;;;;;;11.02;91.03;96387.78;4828845;29;20057;-46
2021/12/31 05:37:12;;;;;;;1.92;1.20;;;;;;;10.94;90.83;96398.34;4837718;29;20049;-45
2021/12/31 05:39:39;;;;;;;2.13;1.30;;;;;;;10.94;90.76;96406.44;4831165;29;20064;-44
2021/12/31 05:42:06;;;;;;;1.80;1.05;;;;;;;10.97;90.33;96405.81;4830965;29;20050;-45
2021/12/31 05:44:33;;;;;;;1.67;1.20;;;;;;;10.86;90.43;96403.78;4835408;29;20046;-44
2021/12/31 05:47:00;;;;;;;1.75;1.10;;;;;;;10.87;90.39;96402.66;4827271;29;20130;-44
2021/12/31 05:49:28;;;;;;;1.10;0.80;;;;;;;11.17;88.81;96398.09;4825915;29;20060;-44
2021/12/31 05:51:56;;;;;;;2.83;1.65;;;;;;;11.02;88.71;96396.72;4834834;29;20564;-44
2021/12/31 05:54:23;;;;;;;1.75;1.08;;;;;;;10.94;89.30;96390.22;4829550;29;20060;-44
2021/12/31 05:56:51;;;;;;;1.67;1.10;;;;;;;10.81;89.60;96390.41;4833334;29;20053;-45
2021/12/31 05:59:18;;;;;;;1.70;0.95;;;;;;;10.72;89.74;96407.47;4828576;29;20049;-44
2021/12/31 06:01:46;;;;;;;1.40;1.00;;;;;;;10.64;90.16;96393.94;4830769;29;20058;-44
2021/12/31 06:04:14;;;;;;;1.50;0.93;;;;;;;10.75;89.72;96400.59;4829741;29;20069;-43
2021/12/31 06:06:42;;;;;;;1.85;1.10;;;;;;;10.66;89.71;96395.22;4832180;29;20412;-44
2021/12/31 06:09:12;;;;;;;1.65;0.90;;;;;;;10.71;89.46;96402.38;4830750;29;20046;-43
2021/12/31 06:11:40;;;;;;;1.15;0.90;;;;;;;10.76;89.14;96400.31;4831415;29;20045;-46
2021/12/31 06:14:10;;;;;;;2.85;0.80;;;;;;;10.88;88.27;96398.81;4830704;29;20073;-44
2021/12/31 06:16:42;;;;;;;1.70;1.00;;;;;;;11.10;87.03;96389.69;4830983;29;20038;-45
2021/12/31 06:19:11;;;;;;;2.25;1.00;;;;;;;10.96;87.58;96393.41;4828939;29;20046;-45
2021/12/31 06:21:40;;;;;;;1.50;1.00;;;;;;;10.83;88.23;96401.72;4834650;29;20042;-43
2021/12/31 06:24:07;;;;;;;1.60;1.10;;;;;;;10.93;87.82;96395.97;4835825;29;20469;-41
2021/12/31 06:26:35;;;;;;;1.95;1.00;;;;;;;10.98;87.57;96401.19;4834948;29;20058;-47
2021/12/31 06:29:04;;;;;;;3.17;1.30;;;;;;;11.24;86.03;96406.50;4832165;29;20054;-41
2021/12/31 06:31:31;;;;;;;2.78;1.65;;;;;;;11.10;85.88;96405.94;4837080;29;20050;-41
2021/12/31 06:33:58;;;;;;;2.20;1.15;;;;;;;10.79;88.53;96412.41;4830618;29;20068;-41
2021/12/31 06:36:25;;;;;;;2.35;1.10;;;;;;;11.10;86.47;96408.66;4832883;29;20046;-42
2021/12/31 06:38:52;;;;;;;1.98;1.10;;;;;;;11.44;85.05;96413.16;4832033;29;20050;-41
2021/12/31 06:41:20;;;;;;;1.52;1.00;;;;;;;10.79;87.72;96415.09;4834298;29;20058;-46
2021/12/31 06:43:48;;;;;;;3.78;1.20;;;;;;;11.03;86.70;96408.34;4832894;29;20466;-45
2021/12/31 06:46:15;;;;;;;1.45;0.85;;;;;;;10.39;89.78;96423.41;4831736;29;20146;-43
2021/12/31 06:48:42;;;;;;;1.60;1.00;;;;;;;10.88;87.29;96418.56;4831326;29;20497;-47
2021/12/31 06:51:10;;;;;;;1.95;1.10;;;;;;;11.11;86.51;96421.06;4831305;29;20133;-42
2021/12/31 06:53:38;;;;;;;2.25;1.20;;;;;;;11.34;85.11;96421.63;4835354;29;20136;-43
2021/12/31 06:56:06;;;;;;;1.55;1.00;;;;;;;10.60;87.59;96428.19;4835223;29;20050;-44
2021/12/31 06:58:33;;;;;;;1.90;1.10;;;;;;;10.25;89.60;96420.03;4836978;29;20057;-42
2021/12/31 07:00:59;;;;;;;1.42;1.00;;;;;;;10.03;90.87;96432.56;4830399;29;20521;-44
2021/12/31 07:03:27;;;;;;;2.55;0.98;;;;;;;10.20;90.41;96425.59;4835092;29;20126;-45
2021/12/31 07:05:54;;;;;;;1.25;0.90;;;;;;;10.74;87.67;96426.88;4839619;29;20049;-46
2021/12/31 07:08:24;;;;;;;3.55;1.52;;;;;;;10.70;87.69;96409.69;4837317;29;20137;-44
2021/12/31 07:10:51;;;;;;;2.92;1.52;;;;;;;10.61;88.42;96408.91;4840371;29;20046;-41
2021/12/31 07:13:18;;;;;;;2.20;1.20;;;;;;;10.49;88.74;96411.47;4836809;29;20043;-45
2021/12/31 07:15:48;;;;;;;2.47;1.20;;;;;;;10.56;88.44;96408.28;4836773;29;20141;-46
2021/12/31 07:18:20;;;;;;;1.48;1.15;;;;;;;10.78;87.51;96413.50;4838813;29;20142;-43
2021/12/31 07:20:48;;;;;;;1.98;1.00;;;;;;;10.70;87.36;96400.78;4836876;29;20042;-44
2021/12/31 07:23:19;;;;;;;2.42;1.10;;;;;;;10.93;86.40;96415.69;4834857;29;20389;-50
2021/12/31 07:25:46;;;;;;;1.67;1.00;;;;;;;11.08;85.31;96410.88;4838603;29;20056;-48
2021/12/31 07:28:14;;;;;;;3.22;1.20;;;;;;;10.25;88.81;96403.81;4834039;29;20057;-45
2021/12/31 07:30:43;;;;;;;1.80;1.13;;;;;;;10.85;87.07;96415.72;4834472;29;20050;-45
2021/12/31 07:33:21;;;;;;;1.83;1.10;;;;;;;11.25;84.72;96412.75;4834842;29;20133;-41
2021/12/31 07:35:52;;;;;;;2.83;1.38;;;;;;;10.93;86.59;96412.19;4832108;29;20077;-41
2021/12/31 07:38:35;;;;;;;1.88;1.10;;;;;;;11.12;85.12;96406.41;4834896;29;20050;-44
2021/12/31 07:41:03;;;;;;;1.90;1.08;;;;;;;10.86;86.11;96409.19;4831556;29;20042;-40
2021/12/31 07:43:30;;;;;;;2.17;1.23;;;;;;;10.77;86.54;96410.00;4838687;29;20133;-41
2021/12/31 07:45:57;;;;;;;2.35;1.17;;;;;;;10.55;87.33;96406.69;4836247;29;20048;-43
2021/12/31 07:48:25;;;;;;;3.20;1.08;;;;;;;10.53;87.56;96415.16;4839746;29;20046;-43
2021/12/31 07:50:53;;;;;;;2.22;1.00;;;;;;;10.43;88.22;96402.75;4831149;29;20054;-43
2021/12/31 07:53:20;;;;;;;1.42;1.00;;;;;;;10.53;87.75;96402.41;4838617;29;20056;-43
2021/12/31 07:55:47;;;;;;;2.05;1.00;;;;;;;10.63;87.16;96412.09;4831606;29;20505;-44
2021/12/31 07:58:14;;;;;;;1.60;0.95;;;;;;;10.79;86.03;96419.69;4838348;29;20463;-46
2021/12/31 08:00:41;;;;;;;2.47;0.90;;;;;;;10.82;86.03;96414.47;4837794;29;20046;-43
2021/12/31 08:03:11;;;;;;;1.30;0.90;;;;;;;11.18;84.75;96415.97;4836194;29;20536;-43
2021/12/31 08:05:38;;;;;;;1.67;1.08;;;;;;;11.14;84.83;96418.50;4836483;29;20075;-43
2021/12/31 08:08:06;;;;;;;1.67;1.00;;;;;;;11.31;83.74;96419.56;4836163;29;20042;-44
2021/12/31 08:10:34;;;;;;;1.15;0.95;;;;;;;11.20;84.56;96424.53;4840768;29;20057;-45
2021/12/31 08:13:21;;;;;;;3.38;1.50;;;;;;;11.51;83.55;96434.31;4830570;29;20138;-42
2021/12/31 08:15:48;;;;;;;1.60;0.98;;;;;;;11.73;82.30;96441.38;4868810;23;20618;-43
2021/12/31 08:18:15;;;;;;;2.53;1.30;;;;;;;11.73;82.43;96444.06;4848531;29;20042;-44
2021/12/31 08:20:42;;;;;;;1.90;0.90;;;;;;;11.29;83.97;96440.78;4843567;29;20049;-46
2021/12/31 08:23:11;;;;;;;2.22;1.27;;;;;;;11.63;82.76;96437.13;4848138;29;20070;-44
2021/12/31 08:25:39;;;;;;;2.25;1.15;;;;;;;11.38;83.55;96434.22;4846501;29;20046;-43
2021/12/31 08:28:06;;;;;;;1.52;1.02;;;;;;;11.55;83.29;96437.97;4852198;29;20068;-47
2021/12/31 08:30:33;;;;;;;1.73;0.93;;;;;;;11.17;83.87;96438.72;4853623;29;20049;-41
2021/12/31 08:33:01;;;;;;;2.88;1.27;;;;;;;11.10;84.23;96443.84;4853611;29;20042;-44
2021/12/31 08:35:29;;;;;;;1.80;1.20;;;;;;;10.83;85.52;96443.13;4849092;29;20079;-44
2021/12/31 08:37:56;;;;;;;4.05;1.40;;;;;;;11.45;83.83;96445.31;4844126;29;20065;-43
2021/12/31 08:40:24;;;;;;;3.40;1.35;;;;;;;11.30;84.10;96445.06;4849401;29;20053;-42
2021/12/31 08:42:51;;;;;;;2.20;1.20;;;;;;;11.35;83.64;96432.16;4853047;29;20046;-42
2021/12/31 08:45:19;;;;;;;2.72;1.30;;;;;;;11.26;84.10;96441.41;4848021;29;20073;-43
2021/12/31 08:47:46;;;;;;;1.80;1.10;;;;;;;11.22;84.44;96438.56;4852246;29;20132;-43
2021/12/31 08:50:13;;;;;;;1.77;1.08;;;;;;;11.19;83.70;96436.50;4851885;29;20053;-47
2021/12/31 08:52:40;;;;;;;1.73;1.10;;;;;;;11.18;84.41;96427.59;4856082;29;20511;-44
2021/12/31 08:55:09;;;;;;;3.90;1.80;;;;;;;11.35;84.23;96436.78;4852079;29;20052;-46
2021/12/31 08:57:36;;;;;;;1.88;1.10;;;;;;;11.69;82.16;96436.59;4846514;29;20404;-47
2021/12/31 09:00:06;;;;;;;1.73;1.10;;;;;;;11.50;82.86;96427.28;4851464;29;20045;-46
2021/12/31 09:02:35;;;;;;;1.60;1.00;;;;;;;11.42;82.95;96429.72;4852031;29;20079;-44
2021/12/31 09:05:02;;;;;;;1.65;1.15;;;;;;;11.45;83.44;96420.94;4849669;29;20042;-44
2021/12/31 09:07:29;;;;;;;2.63;1.17;;;;;;;11.76;81.97;96421.75;4850046;29;20077;-44
2021/12/31 09:09:56;;;;;;;1.98;1.17;;;;;;;11.50;83.12;96424.59;4855530;29;20053;-46
2021/12/31 09:12:24;;;;;;;1.70;0.95;;;;;;;11.05;83.92;96422.34;4851861;29;20062;-44
2021/12/31 09:14:51;;;;;;;1.40;1.02;;;;;;;11.42;82.84;96415.38;4849610;29;20133;-45
2021/12/31 09:17:18;;;;;;;1.75;1.23;;;;;;;11.37;83.80;96413.63;4850681;29;20042;-43
2021/12/31 09:19:45;;;;;;;1.67;1.15;;;;;;;11.37;84.12;96423.69;4845590;29;20050;-44
2021/12/31 09:22:12;;;;;;;2.47;1.48;;;;;;;11.18;84.63;96422.16;4850669;29;20041;-44
2021/12/31 09:24:39;;;;;;;2.40;1.33;;;;;;;11.30;84.32;96415.25;4849946;29;20054;-42
2021/12/31 09:27:06;;;;;;;2.03;1.00;;;;;;;11.32;83.39;96427.38;4847749;29;20042;-44
2021/12/31 09:29:33;;;;;;;3.85;1.40;;;;;;;11.78;82.50;96417.59;4850535;29;20132;-45
2021/12/31 09:32:01;;;;;;;2.55;1.38;;;;;;;11.68;82.86;96423.38;4845965;29;20158;-41
2021/12/31 09:34:30;;;;;;;2.08;1.20;;;;;;;11.61;83.28;96418.47;4853271;29;20064;-43
2021/12/31 09:36:58;;;;;;;1.55;1.00;;;;;;;11.58;83.36;96415.63;4846278;29;20037;-43
2021/12/31 09:39:25;;;;;;;2.25;1.10;;;;;;;11.73;82.55;96427.81;4852926;29;20054;-43
2021/12/31 09:41:51;;;;;;;1.48;0.90;;;;;;;11.59;83.16;96428.06;4853278;29;20080;-42
2021/12/31 09:44:22;;;;;;;1.55;1.10;;;;;;;11.80;82.79;96423.50;4844884;29;20049;-43
2021/12/31 09:46:49;;;;;;;1.25;0.95;;;;;;;11.90;81.90;96433.19;4846795;29;20061;-42
2021/12/31 09:49:17;;;;;;;2.03;0.80;;;;;;;11.88;81.83;96428.06;4855719;29;20815;-44
2021/12/31 09:51:44;;;;;;;1.88;0.98;;;;;;;12.04;81.64;96433.72;4853882;29;20102;-42
2021/12/31 09:54:12;;;;;;;2.42;1.10;;;;;;;12.14;81.03;96427.13;4849755;29;20397;-43
2021/12/31 09:56:40;;;;;;;1.42;0.95;;;;;;;12.05;80.78;96423.66;4849953;29;20038;-48
2021/12/31 09:59:08;;;;;;;1.30;0.90;;;;;;;11.93;81.60;96425.19;4846848;29;20041;-41
2021/12/31 10:01:47;;;;;;;1.40;0.88;;;;;;;11.73;81.58;96431.31;4851819;29;20046;-42
2021/12/31 10:04:14;;;;;;;1.98;1.00;;;;;;;11.94;81.78;96420.56;4842706;29;20070;-45
2021/12/31 10:07:05;;;;;;;1.90;0.70;;;;;;;11.95;81.60;96430.28;4859413;29;20059;-47
2021/12/31 10:09:33;;;;;;;1.27;0.82;;;;;;;11.65;81.85;96426.75;4855445;29;20053;-44
2021/12/31 10:12:10;;;;;;;1.63;0.70;;;;;;;11.64;82.42;96438.72;4846741;29;20389;-51
2021/12/31 10:14:41;;;;;;;0.88;0.63;;;;;;;11.73;81.63;96430.53;4859077;29;20476;-47
2021/12/31 10:17:09;;;;;;;1.38;0.80;;;;;;;11.68;80.86;96428.81;4854173;29;20042;-48
2021/12/31 10:19:55;;;;;;;1.00;0.70;;;;;;;11.86;81.21;96424.91;4858854;29;20049;-42
2021/12/31 10:22:22;;;;;;;1.30;0.70;;;;;;;11.83;80.34;96420.13;4855585;29;20053;-38
2021/12/31 10:24:51;;;;;;;1.17;0.90;;;;;;;11.96;80.08;96412.91;4857169;29;20054;-43
2021/12/31 10:27:20;;;;;;;1.73;1.17;;;;;;;11.89;80.72;96405.28;4848408;29;20580;-40
2021/12/31 10:29:53;;;;;;;1.95;1.20;;;;;;;12.00;80.42;96402.19;4844847;29;20073;-42
2021/12/31 10:32:22;;;;;;;2.95;1.00;;;;;;;11.94;80.56;96398.88;4843490;29;20141;-42
2021/12/31 10:34:50;;;;;;;1.55;0.90;;;;;;;11.88;80.29;96400.19;4844990;29;20056;-46
2021/12/31 10:37:18;;;;;;;1.20;0.80;;;;;;;11.87;79.87;96398.59;4842919;29;20054;-46
2021/12/31 10:39:55;;;;;;;1.10;0.73;;;;;;;11.86;79.98;96395.09;4850309;29;20061;-45
2021/12/31 10:42:31;;;;;;;1.15;0.70;;;;;;;12.01;79.87;96384.78;4845974;29;20082;-43
2021/12/31 10:45:00;;;;;;;1.83;0.80;;;;;;;11.98;77.72;96386.22;4847051;29;20054;-40
2021/12/31 10:47:35;;;;;;;1.02;0.70;;;;;;;12.07;78.36;96383.47;4845705;29;20042;-44
2021/12/31 10:50:04;;;;;;;0.93;0.70;;;;;;;12.13;78.14;96374.78;4846818;29;20472;-45
2021/12/31 10:52:42;;;;;;;2.10;0.70;;;;;;;12.13;78.02;96368.59;4853538;29;20453;-42
2021/12/31 10:55:17;;;;;;;2.38;0.90;;;;;;;12.09;77.95;96362.22;4845011;29;20050;-47
2021/12/31 10:57:47;;;;;;;1.70;0.70;;;;;;;12.05;78.43;96362.06;4845104;29;20037;-44
2021/12/31 11:00:15;;;;;;;1.70;0.88;;;;;;;12.11;77.41;96366.19;4845255;29;20057;-42
2021/12/31 11:02:45;;;;;;;1.45;0.85;;;;;;;12.15;77.49;96344.63;4844501;29;20054;-50
2021/12/31 11:05:14;;;;;;;0.80;0.65;;;;;;;12.28;75.94;96350.88;4844112;29;20053;-44
2021/12/31 11:07:41;;;;;;;1.05;0.70;;;;;;;12.30;76.70;96346.72;4843893;29;20069;-45
2021/12/31 11:10:32;;;;;;;0.77;0.60;;;;;;;12.44;76.62;96345.63;4843989;29;20469;-41
2021/12/31 11:13:03;;;;;;;1.02;0.63;;;;;;;12.40;75.99;96357.16;4844240;29;20046;-47
2021/12/31 11:15:30;;;;;;;1.88;0.70;;;;;;;12.67;75.09;96360.41;4843840;29;20145;-45
2021/12/31 11:17:57;;;;;;;0.90;0.65;;;;;;;12.83;73.36;96364.06;4842188;29;20041;-41
2021/12/31 11:20:25;;;;;;;0.98;0.70;;;;;;;12.96;73.73;96356.75;4843823;29;20137;-42
2021/12/31 11:22:52;;;;;;;2.67;0.65;;;;;;;13.25;73.17;96352.28;4843589;29;20049;-43
2021/12/31 11:26:05;;;;;;;1.63;0.60;;;;;;;14.23;68.08;96333.94;4843643;29;20051;-41
2021/12/31 11:28:34;;;;;;;1.25;0.75;;;;;;;15.70;65.13;96328.72;4843682;29;20050;-42
2021/12/31 11:31:25;;;;;;;0.85;0.55;;;;;;;16.23;63.04;96332.59;4843500;29;20365;-44
2021/12/31 11:33:57;;;;;;;0.70;0.50;;;;;;;15.88;63.02;96338.88;4843819;29;20406;-45
2021/12/31 11:36:41;;;;;;;4.93;1.10;;;;;;;16.31;61.41;96336.25;4843401;29;20424;-42
2021/12/31 11:39:30;;;;;;;0.70;0.60;;;;;;;15.22;65.41;96334.19;4843307;29;20436;-42
2021/12/31 11:42:03;;;;;;;1.13;0.52;;;;;;;16.63;60.59;96336.09;4843196;29;20106;-41
2021/12/31 11:44:32;;;;;;;0.57;0.57;;;;;;;16.72;59.76;96339.41;4843317;29;20456;-47
2021/12/31 11:47:17;;;;;;;1.00;0.47;;;;;;;17.00;58.78;96331.75;4856856;29;20050;-46